sensor_id;sensor_type;location;lat;lon;timestamp;P1;durP1;ratioP1;P2;durP2;ratioP2
70301;SDS011;57706;56.326;43.882;2023-08-20T00:01:29;8.55;;;2.50;;
70301;SDS011;57706;56.326;43.882;2023-08-20T00:03:56;2.47;;;2.10;;
70301;SDS011;57706;56.326;43.882;2023-08-20T00:06:22;5.47;;;2.30;;
70301;SDS011;57706;56.326;43.882;2023-08-20T00:08:49;4.00;;;2.13;;
70301;SDS011;57706;56.326;43.882;2023-08-20T00:11:15;4.60;;;2.30;;
70301;SDS011;57706;56.326;43.882;2023-08-20T00:13:41;3.80;;;2.30;;
70301;SDS011;57706;56.326;43.882;2023-08-20T00:16:07;4.63;;;2.72;;
70301;SDS011;57706;56.326;43.882;2023-08-20T00:18:34;4.68;;;2.33;;
70301;SDS011;57706;56.326;43.882;2023-08-20T00:21:00;5.88;;;2.83;;
70301;SDS011;57706;56.326;43.882;2023-08-20T00:23:26;4.18;;;3.35;;
70301;SDS011;57706;56.326;43.882;2023-08-20T00:25:53;6.30;;;3.25;;
70301;SDS011;57706;56.326;43.882;2023-08-20T00:28:20;5.00;;;3.13;;
70301;SDS011;57706;56.326;43.882;2023-08-20T00:30:46;3.97;;;3.30;;
70301;SDS011;57706;56.326;43.882;2023-08-20T00:33:12;4.40;;;3.42;;
70301;SDS011;57706;56.326;43.882;2023-08-20T00:35:38;11.20;;;3.60;;
70301;SDS011;57706;56.326;43.882;2023-08-20T00:38:04;4.93;;;3.60;;
70301;SDS011;57706;56.326;43.882;2023-08-20T00:40:32;4.78;;;3.55;;
70301;SDS011;57706;56.326;43.882;2023-08-20T00:42:58;5.20;;;3.42;;
70301;SDS011;57706;56.326;43.882;2023-08-20T00:45:24;5.15;;;3.30;;
70301;SDS011;57706;56.326;43.882;2023-08-20T00:47:52;5.75;;;2.92;;
70301;SDS011;57706;56.326;43.882;2023-08-20T00:50:18;7.28;;;3.30;;
70301;SDS011;57706;56.326;43.882;2023-08-20T00:52:45;5.07;;;3.08;;
70301;SDS011;57706;56.326;43.882;2023-08-20T00:55:12;6.15;;;3.03;;
70301;SDS011;57706;56.326;43.882;2023-08-20T00:57:39;4.65;;;2.83;;
70301;SDS011;57706;56.326;43.882;2023-08-20T01:00:06;7.00;;;3.17;;
70301;SDS011;57706;56.326;43.882;2023-08-20T01:02:37;5.95;;;3.33;;
70301;SDS011;57706;56.326;43.882;2023-08-20T01:05:06;5.80;;;2.83;;
70301;SDS011;57706;56.326;43.882;2023-08-20T01:13:00;4.32;;;3.00;;
70301;SDS011;57706;56.326;43.882;2023-08-20T01:15:27;5.00;;;3.13;;
70301;SDS011;57706;56.326;43.882;2023-08-20T01:17:53;5.72;;;2.97;;
70301;SDS011;57706;56.326;43.882;2023-08-20T01:20:19;4.13;;;3.10;;
70301;SDS011;57706;56.326;43.882;2023-08-20T01:30:45;3.58;;;3.00;;
70301;SDS011;57706;56.326;43.882;2023-08-20T01:33:11;4.88;;;3.53;;
70301;SDS011;57706;56.326;43.882;2023-08-20T01:35:39;4.47;;;3.05;;
70301;SDS011;57706;56.326;43.882;2023-08-20T01:38:14;6.13;;;2.83;;
70301;SDS011;57706;56.326;43.882;2023-08-20T01:40:40;10.15;;;3.20;;
70301;SDS011;57706;56.326;43.882;2023-08-20T01:43:06;5.18;;;3.03;;
70301;SDS011;57706;56.326;43.882;2023-08-20T01:45:32;4.43;;;3.13;;
70301;SDS011;57706;56.326;43.882;2023-08-20T01:47:58;3.42;;;3.05;;
70301;SDS011;57706;56.326;43.882;2023-08-20T01:50:25;6.03;;;3.10;;
70301;SDS011;57706;56.326;43.882;2023-08-20T01:52:51;4.82;;;3.00;;
70301;SDS011;57706;56.326;43.882;2023-08-20T01:55:17;6.95;;;3.10;;
70301;SDS011;57706;56.326;43.882;2023-08-20T01:57:43;6.15;;;3.03;;
70301;SDS011;57706;56.326;43.882;2023-08-20T02:00:09;6.05;;;3.03;;
70301;SDS011;57706;56.326;43.882;2023-08-20T02:02:41;5.55;;;2.90;;
70301;SDS011;57706;56.326;43.882;2023-08-20T02:05:08;6.75;;;3.20;;
70301;SDS011;57706;56.326;43.882;2023-08-20T02:07:38;5.07;;;3.13;;
70301;SDS011;57706;56.326;43.882;2023-08-20T02:10:04;6.72;;;3.40;;
70301;SDS011;57706;56.326;43.882;2023-08-20T02:12:32;5.13;;;3.20;;
70301;SDS011;57706;56.326;43.882;2023-08-20T02:14:58;6.13;;;3.47;;
70301;SDS011;57706;56.326;43.882;2023-08-20T02:17:24;4.35;;;3.20;;
70301;SDS011;57706;56.326;43.882;2023-08-20T02:19:50;10.27;;;3.42;;
70301;SDS011;57706;56.326;43.882;2023-08-20T02:22:16;4.30;;;2.90;;
70301;SDS011;57706;56.326;43.882;2023-08-20T02:24:43;6.13;;;2.92;;
70301;SDS011;57706;56.326;43.882;2023-08-20T02:27:09;5.60;;;3.00;;
70301;SDS011;57706;56.326;43.882;2023-08-20T02:29:35;6.60;;;3.13;;
70301;SDS011;57706;56.326;43.882;2023-08-20T02:32:01;4.97;;;3.03;;
70301;SDS011;57706;56.326;43.882;2023-08-20T02:34:29;4.85;;;3.20;;
70301;SDS011;57706;56.326;43.882;2023-08-20T02:36:55;10.88;;;3.13;;
70301;SDS011;57706;56.326;43.882;2023-08-20T02:39:22;10.55;;;3.42;;
70301;SDS011;57706;56.326;43.882;2023-08-20T02:41:50;3.70;;;2.63;;
70301;SDS011;57706;56.326;43.882;2023-08-20T02:44:17;8.18;;;2.70;;
70301;SDS011;57706;56.326;43.882;2023-08-20T02:46:43;5.75;;;2.90;;
70301;SDS011;57706;56.326;43.882;2023-08-20T02:49:10;6.93;;;2.95;;
70301;SDS011;57706;56.326;43.882;2023-08-20T02:51:37;6.93;;;2.55;;
70301;SDS011;57706;56.326;43.882;2023-08-20T02:54:03;7.70;;;3.00;;
70301;SDS011;57706;56.326;43.882;2023-08-20T02:56:29;6.97;;;3.03;;
70301;SDS011;57706;56.326;43.882;2023-08-20T02:58:56;11.98;;;3.15;;
70301;SDS011;57706;56.326;43.882;2023-08-20T03:01:22;5.82;;;2.60;;
70301;SDS011;57706;56.326;43.882;2023-08-20T03:03:51;9.35;;;2.83;;
70301;SDS011;57706;56.326;43.882;2023-08-20T03:06:17;7.97;;;2.65;;
70301;SDS011;57706;56.326;43.882;2023-08-20T03:08:43;9.60;;;2.70;;
70301;SDS011;57706;56.326;43.882;2023-08-20T03:11:08;9.25;;;2.60;;
70301;SDS011;57706;56.326;43.882;2023-08-20T03:13:34;13.27;;;3.78;;
70301;SDS011;57706;56.326;43.882;2023-08-20T03:16:01;6.45;;;2.90;;
70301;SDS011;57706;56.326;43.882;2023-08-20T03:18:27;5.28;;;2.70;;
70301;SDS011;57706;56.326;43.882;2023-08-20T03:20:56;6.35;;;2.78;;
70301;SDS011;57706;56.326;43.882;2023-08-20T03:23:23;7.53;;;3.15;;
70301;SDS011;57706;56.326;43.882;2023-08-20T03:25:49;7.10;;;2.85;;
70301;SDS011;57706;56.326;43.882;2023-08-20T03:28:17;7.20;;;2.78;;
70301;SDS011;57706;56.326;43.882;2023-08-20T03:30:44;6.47;;;2.88;;
70301;SDS011;57706;56.326;43.882;2023-08-20T03:33:12;4.82;;;2.70;;
70301;SDS011;57706;56.326;43.882;2023-08-20T03:35:40;3.72;;;2.60;;
70301;SDS011;57706;56.326;43.882;2023-08-20T03:38:06;6.10;;;2.72;;
70301;SDS011;57706;56.326;43.882;2023-08-20T03:40:32;6.57;;;2.75;;
70301;SDS011;57706;56.326;43.882;2023-08-20T03:42:58;4.90;;;2.58;;
70301;SDS011;57706;56.326;43.882;2023-08-20T03:45:25;3.67;;;2.35;;
70301;SDS011;57706;56.326;43.882;2023-08-20T03:47:51;6.18;;;2.88;;
70301;SDS011;57706;56.326;43.882;2023-08-20T03:50:17;5.60;;;2.50;;
70301;SDS011;57706;56.326;43.882;2023-08-20T03:52:44;7.88;;;2.92;;
70301;SDS011;57706;56.326;43.882;2023-08-20T03:55:10;5.68;;;2.60;;
70301;SDS011;57706;56.326;43.882;2023-08-20T03:57:36;7.18;;;2.90;;
70301;SDS011;57706;56.326;43.882;2023-08-20T04:00:04;7.03;;;2.85;;
70301;SDS011;57706;56.326;43.882;2023-08-20T04:02:41;5.53;;;2.92;;
70301;SDS011;57706;56.326;43.882;2023-08-20T04:05:07;4.93;;;2.55;;
70301;SDS011;57706;56.326;43.882;2023-08-20T04:07:33;7.72;;;2.95;;
70301;SDS011;57706;56.326;43.882;2023-08-20T04:09:59;8.85;;;2.65;;
70301;SDS011;57706;56.326;43.882;2023-08-20T04:12:25;7.05;;;2.67;;
70301;SDS011;57706;56.326;43.882;2023-08-20T04:14:51;7.45;;;2.80;;
70301;SDS011;57706;56.326;43.882;2023-08-20T04:17:16;6.90;;;2.60;;
70301;SDS011;57706;56.326;43.882;2023-08-20T04:19:43;8.75;;;2.65;;
70301;SDS011;57706;56.326;43.882;2023-08-20T04:22:08;4.95;;;2.70;;
70301;SDS011;57706;56.326;43.882;2023-08-20T04:24:34;6.10;;;2.50;;
70301;SDS011;57706;56.326;43.882;2023-08-20T04:27:00;7.10;;;2.78;;
70301;SDS011;57706;56.326;43.882;2023-08-20T04:29:27;5.97;;;3.03;;
70301;SDS011;57706;56.326;43.882;2023-08-20T04:31:53;7.03;;;3.00;;
70301;SDS011;57706;56.326;43.882;2023-08-20T04:34:19;8.40;;;3.03;;
70301;SDS011;57706;56.326;43.882;2023-08-20T04:36:49;9.10;;;3.30;;
70301;SDS011;57706;56.326;43.882;2023-08-20T04:39:17;6.85;;;3.13;;
70301;SDS011;57706;56.326;43.882;2023-08-20T04:41:48;12.77;;;3.50;;
70301;SDS011;57706;56.326;43.882;2023-08-20T04:44:16;7.57;;;3.30;;
70301;SDS011;57706;56.326;43.882;2023-08-20T04:46:42;6.32;;;3.33;;
70301;SDS011;57706;56.326;43.882;2023-08-20T04:49:09;4.72;;;3.20;;
70301;SDS011;57706;56.326;43.882;2023-08-20T04:51:38;4.35;;;3.00;;
70301;SDS011;57706;56.326;43.882;2023-08-20T04:54:04;6.00;;;3.40;;
70301;SDS011;57706;56.326;43.882;2023-08-20T04:56:30;6.38;;;3.25;;
70301;SDS011;57706;56.326;43.882;2023-08-20T04:58:56;6.93;;;3.10;;
70301;SDS011;57706;56.326;43.882;2023-08-20T05:01:48;5.60;;;3.13;;
70301;SDS011;57706;56.326;43.882;2023-08-20T05:04:15;7.93;;;3.17;;
70301;SDS011;57706;56.326;43.882;2023-08-20T05:06:41;12.30;;;3.88;;
70301;SDS011;57706;56.326;43.882;2023-08-20T05:09:07;3.42;;;2.85;;
70301;SDS011;57706;56.326;43.882;2023-08-20T05:11:33;8.95;;;3.50;;
70301;SDS011;57706;56.326;43.882;2023-08-20T05:13:59;5.15;;;3.22;;
70301;SDS011;57706;56.326;43.882;2023-08-20T05:16:25;8.80;;;3.13;;
70301;SDS011;57706;56.326;43.882;2023-08-20T05:18:52;11.55;;;3.42;;
70301;SDS011;57706;56.326;43.882;2023-08-20T05:21:17;4.97;;;3.03;;
70301;SDS011;57706;56.326;43.882;2023-08-20T05:23:43;6.32;;;3.38;;
70301;SDS011;57706;56.326;43.882;2023-08-20T05:26:11;9.00;;;3.10;;
70301;SDS011;57706;56.326;43.882;2023-08-20T05:28:37;5.20;;;3.30;;
70301;SDS011;57706;56.326;43.882;2023-08-20T05:31:02;7.93;;;2.90;;
70301;SDS011;57706;56.326;43.882;2023-08-20T05:33:28;3.85;;;2.72;;
70301;SDS011;57706;56.326;43.882;2023-08-20T05:35:54;5.75;;;3.00;;
70301;SDS011;57706;56.326;43.882;2023-08-20T05:38:21;6.10;;;3.72;;
70301;SDS011;57706;56.326;43.882;2023-08-20T05:40:49;11.23;;;7.82;;
70301;SDS011;57706;56.326;43.882;2023-08-20T05:43:15;6.75;;;3.03;;
70301;SDS011;57706;56.326;43.882;2023-08-20T05:45:41;5.93;;;3.08;;
70301;SDS011;57706;56.326;43.882;2023-08-20T05:48:09;6.38;;;3.10;;
70301;SDS011;57706;56.326;43.882;2023-08-20T05:50:35;4.00;;;3.13;;
70301;SDS011;57706;56.326;43.882;2023-08-20T05:53:01;5.57;;;2.85;;
70301;SDS011;57706;56.326;43.882;2023-08-20T05:55:29;8.32;;;2.80;;
70301;SDS011;57706;56.326;43.882;2023-08-20T05:57:55;4.28;;;2.80;;
70301;SDS011;57706;56.326;43.882;2023-08-20T06:00:21;5.90;;;3.05;;
70301;SDS011;57706;56.326;43.882;2023-08-20T06:02:48;6.82;;;3.10;;
70301;SDS011;57706;56.326;43.882;2023-08-20T06:05:14;6.95;;;3.33;;
70301;SDS011;57706;56.326;43.882;2023-08-20T06:07:40;4.50;;;2.97;;
70301;SDS011;57706;56.326;43.882;2023-08-20T06:10:06;4.30;;;3.08;;
70301;SDS011;57706;56.326;43.882;2023-08-20T06:12:33;6.65;;;2.90;;
70301;SDS011;57706;56.326;43.882;2023-08-20T06:15:00;8.23;;;2.60;;
70301;SDS011;57706;56.326;43.882;2023-08-20T06:19:56;6.72;;;2.95;;
70301;SDS011;57706;56.326;43.882;2023-08-20T06:22:22;6.13;;;2.70;;
70301;SDS011;57706;56.326;43.882;2023-08-20T06:24:48;3.65;;;2.97;;
70301;SDS011;57706;56.326;43.882;2023-08-20T06:27:14;6.15;;;2.70;;
70301;SDS011;57706;56.326;43.882;2023-08-20T06:29:39;3.75;;;2.70;;
70301;SDS011;57706;56.326;43.882;2023-08-20T06:32:05;4.03;;;2.83;;
70301;SDS011;57706;56.326;43.882;2023-08-20T06:34:33;4.00;;;2.80;;
70301;SDS011;57706;56.326;43.882;2023-08-20T06:36:59;5.78;;;3.00;;
70301;SDS011;57706;56.326;43.882;2023-08-20T06:39:25;4.95;;;2.83;;
70301;SDS011;57706;56.326;43.882;2023-08-20T06:41:51;7.38;;;3.08;;
70301;SDS011;57706;56.326;43.882;2023-08-20T06:44:19;3.85;;;2.80;;
70301;SDS011;57706;56.326;43.882;2023-08-20T06:46:45;5.68;;;3.03;;
70301;SDS011;57706;56.326;43.882;2023-08-20T06:49:11;3.83;;;2.80;;
70301;SDS011;57706;56.326;43.882;2023-08-20T06:51:37;10.38;;;3.40;;
70301;SDS011;57706;56.326;43.882;2023-08-20T06:54:03;7.22;;;3.20;;
70301;SDS011;57706;56.326;43.882;2023-08-20T06:56:32;7.63;;;3.80;;
70301;SDS011;57706;56.326;43.882;2023-08-20T06:58:59;8.10;;;3.10;;
70301;SDS011;57706;56.326;43.882;2023-08-20T07:01:26;7.28;;;3.33;;
70301;SDS011;57706;56.326;43.882;2023-08-20T07:03:53;6.97;;;3.60;;
70301;SDS011;57706;56.326;43.882;2023-08-20T07:06:19;13.30;;;3.95;;
70301;SDS011;57706;56.326;43.882;2023-08-20T07:08:45;8.93;;;3.95;;
70301;SDS011;57706;56.326;43.882;2023-08-20T07:11:11;5.40;;;3.42;;
70301;SDS011;57706;56.326;43.882;2023-08-20T07:13:36;6.55;;;3.83;;
70301;SDS011;57706;56.326;43.882;2023-08-20T07:16:02;4.60;;;3.42;;
70301;SDS011;57706;56.326;43.882;2023-08-20T07:18:28;5.38;;;3.65;;
70301;SDS011;57706;56.326;43.882;2023-08-20T07:20:55;7.63;;;3.80;;
70301;SDS011;57706;56.326;43.882;2023-08-20T07:23:21;6.45;;;3.60;;
70301;SDS011;57706;56.326;43.882;2023-08-20T07:25:47;9.25;;;3.90;;
70301;SDS011;57706;56.326;43.882;2023-08-20T07:28:14;8.48;;;3.53;;
70301;SDS011;57706;56.326;43.882;2023-08-20T07:30:39;7.47;;;3.40;;
70301;SDS011;57706;56.326;43.882;2023-08-20T07:33:06;6.82;;;3.80;;
70301;SDS011;57706;56.326;43.882;2023-08-20T07:35:32;5.35;;;4.22;;
70301;SDS011;57706;56.326;43.882;2023-08-20T07:37:58;7.65;;;3.83;;
70301;SDS011;57706;56.326;43.882;2023-08-20T07:40:24;5.57;;;3.70;;
70301;SDS011;57706;56.326;43.882;2023-08-20T07:42:50;11.18;;;4.03;;
70301;SDS011;57706;56.326;43.882;2023-08-20T07:45:16;6.22;;;3.78;;
70301;SDS011;57706;56.326;43.882;2023-08-20T07:47:42;8.23;;;3.92;;
70301;SDS011;57706;56.326;43.882;2023-08-20T07:50:08;12.93;;;3.92;;
70301;SDS011;57706;56.326;43.882;2023-08-20T07:52:34;7.00;;;3.78;;
70301;SDS011;57706;56.326;43.882;2023-08-20T07:55:00;6.18;;;3.78;;
70301;SDS011;57706;56.326;43.882;2023-08-20T07:57:26;6.35;;;3.40;;
70301;SDS011;57706;56.326;43.882;2023-08-20T07:59:52;9.23;;;4.13;;
70301;SDS011;57706;56.326;43.882;2023-08-20T08:02:18;8.35;;;4.25;;
70301;SDS011;57706;56.326;43.882;2023-08-20T08:04:44;9.75;;;3.90;;
70301;SDS011;57706;56.326;43.882;2023-08-20T08:07:10;8.32;;;4.57;;
70301;SDS011;57706;56.326;43.882;2023-08-20T08:09:36;8.88;;;6.00;;
70301;SDS011;57706;56.326;43.882;2023-08-20T08:12:03;7.63;;;4.65;;
70301;SDS011;57706;56.326;43.882;2023-08-20T08:14:29;11.35;;;4.20;;
70301;SDS011;57706;56.326;43.882;2023-08-20T08:16:55;9.68;;;4.55;;
70301;SDS011;57706;56.326;43.882;2023-08-20T08:19:21;7.22;;;4.05;;
70301;SDS011;57706;56.326;43.882;2023-08-20T08:21:47;7.40;;;3.80;;
70301;SDS011;57706;56.326;43.882;2023-08-20T08:24:14;11.70;;;4.25;;
70301;SDS011;57706;56.326;43.882;2023-08-20T08:26:41;12.05;;;4.45;;
70301;SDS011;57706;56.326;43.882;2023-08-20T08:29:07;4.93;;;4.38;;
70301;SDS011;57706;56.326;43.882;2023-08-20T08:31:34;7.10;;;4.95;;
70301;SDS011;57706;56.326;43.882;2023-08-20T08:34:01;10.93;;;4.82;;
70301;SDS011;57706;56.326;43.882;2023-08-20T08:36:28;6.05;;;4.50;;
70301;SDS011;57706;56.326;43.882;2023-08-20T08:38:54;8.82;;;4.80;;
70301;SDS011;57706;56.326;43.882;2023-08-20T08:41:21;5.82;;;4.15;;
70301;SDS011;57706;56.326;43.882;2023-08-20T08:43:51;7.38;;;4.40;;
70301;SDS011;57706;56.326;43.882;2023-08-20T08:46:17;8.05;;;4.15;;
70301;SDS011;57706;56.326;43.882;2023-08-20T08:48:44;12.07;;;4.93;;
70301;SDS011;57706;56.326;43.882;2023-08-20T08:51:13;10.07;;;4.53;;
70301;SDS011;57706;56.326;43.882;2023-08-20T08:53:41;6.57;;;4.97;;
70301;SDS011;57706;56.326;43.882;2023-08-20T08:56:07;7.93;;;4.43;;
70301;SDS011;57706;56.326;43.882;2023-08-20T08:58:33;6.75;;;4.45;;
70301;SDS011;57706;56.326;43.882;2023-08-20T09:00:59;12.00;;;4.93;;
70301;SDS011;57706;56.326;43.882;2023-08-20T09:03:26;11.18;;;5.13;;
70301;SDS011;57706;56.326;43.882;2023-08-20T09:05:55;11.00;;;5.13;;
70301;SDS011;57706;56.326;43.882;2023-08-20T09:08:27;7.47;;;5.32;;
70301;SDS011;57706;56.326;43.882;2023-08-20T09:10:55;10.40;;;6.05;;
70301;SDS011;57706;56.326;43.882;2023-08-20T09:13:38;9.60;;;6.43;;
70301;SDS011;57706;56.326;43.882;2023-08-20T09:16:09;10.15;;;5.75;;
70301;SDS011;57706;56.326;43.882;2023-08-20T09:21:08;15.88;;;6.30;;
70301;SDS011;57706;56.326;43.882;2023-08-20T09:23:35;15.88;;;7.40;;
70301;SDS011;57706;56.326;43.882;2023-08-20T09:26:02;16.27;;;7.28;;
70301;SDS011;57706;56.326;43.882;2023-08-20T09:28:30;12.90;;;8.73;;
70301;SDS011;57706;56.326;43.882;2023-08-20T09:33:32;14.00;;;8.40;;
70301;SDS011;57706;56.326;43.882;2023-08-20T09:35:58;16.10;;;8.65;;
70301;SDS011;57706;56.326;43.882;2023-08-20T09:38:24;10.73;;;7.10;;
70301;SDS011;57706;56.326;43.882;2023-08-20T09:40:51;10.55;;;7.72;;
70301;SDS011;57706;56.326;43.882;2023-08-20T09:43:18;14.52;;;7.07;;
70301;SDS011;57706;56.326;43.882;2023-08-20T09:45:48;10.45;;;7.55;;
70301;SDS011;57706;56.326;43.882;2023-08-20T09:48:18;14.00;;;7.55;;
70301;SDS011;57706;56.326;43.882;2023-08-20T09:50:48;11.20;;;7.72;;
70301;SDS011;57706;56.326;43.882;2023-08-20T09:53:26;12.20;;;7.55;;
70301;SDS011;57706;56.326;43.882;2023-08-20T09:56:03;10.18;;;7.13;;
70301;SDS011;57706;56.326;43.882;2023-08-20T09:58:36;16.17;;;7.63;;
70301;SDS011;57706;56.326;43.882;2023-08-20T10:01:03;12.52;;;7.88;;
70301;SDS011;57706;56.326;43.882;2023-08-20T10:03:29;15.85;;;7.97;;
70301;SDS011;57706;56.326;43.882;2023-08-20T10:05:55;15.65;;;7.45;;
70301;SDS011;57706;56.326;43.882;2023-08-20T10:08:23;8.73;;;7.03;;
70301;SDS011;57706;56.326;43.882;2023-08-20T10:10:50;12.93;;;8.63;;
70301;SDS011;57706;56.326;43.882;2023-08-20T10:13:16;8.02;;;6.75;;
70301;SDS011;57706;56.326;43.882;2023-08-20T10:15:43;12.77;;;7.63;;
70301;SDS011;57706;56.326;43.882;2023-08-20T10:18:09;14.95;;;7.38;;
70301;SDS011;57706;56.326;43.882;2023-08-20T10:20:35;12.23;;;5.85;;
70301;SDS011;57706;56.326;43.882;2023-08-20T10:23:04;16.42;;;11.73;;
70301;SDS011;57706;56.326;43.882;2023-08-20T10:25:30;14.75;;;7.28;;
70301;SDS011;57706;56.326;43.882;2023-08-20T10:28:39;12.50;;;6.05;;
70301;SDS011;57706;56.326;43.882;2023-08-20T10:33:54;9.43;;;6.47;;
70301;SDS011;57706;56.326;43.882;2023-08-20T10:36:21;10.18;;;6.15;;
70301;SDS011;57706;56.326;43.882;2023-08-20T10:38:49;8.32;;;5.40;;
70301;SDS011;57706;56.326;43.882;2023-08-20T10:41:15;7.00;;;5.75;;
70301;SDS011;57706;56.326;43.882;2023-08-20T10:43:46;8.48;;;5.70;;
70301;SDS011;57706;56.326;43.882;2023-08-20T10:51:18;6.70;;;5.53;;
70301;SDS011;57706;56.326;43.882;2023-08-20T10:56:43;10.27;;;6.88;;
70301;SDS011;57706;56.326;43.882;2023-08-20T10:59:17;15.60;;;6.68;;
70301;SDS011;57706;56.326;43.882;2023-08-20T11:01:49;10.77;;;5.97;;
70301;SDS011;57706;56.326;43.882;2023-08-20T11:04:16;10.63;;;5.82;;
70301;SDS011;57706;56.326;43.882;2023-08-20T11:09:14;8.57;;;5.78;;
70301;SDS011;57706;56.326;43.882;2023-08-20T11:11:41;8.68;;;6.00;;
70301;SDS011;57706;56.326;43.882;2023-08-20T11:14:08;8.63;;;5.65;;
70301;SDS011;57706;56.326;43.882;2023-08-20T11:16:39;17.83;;;7.00;;
70301;SDS011;57706;56.326;43.882;2023-08-20T11:19:05;11.73;;;6.05;;
70301;SDS011;57706;56.326;43.882;2023-08-20T11:21:37;7.85;;;5.90;;
70301;SDS011;57706;56.326;43.882;2023-08-20T11:24:04;27.95;;;18.42;;
70301;SDS011;57706;56.326;43.882;2023-08-20T11:26:35;14.02;;;7.20;;
70301;SDS011;57706;56.326;43.882;2023-08-20T11:29:06;9.30;;;6.78;;
70301;SDS011;57706;56.326;43.882;2023-08-20T11:31:33;13.60;;;6.35;;
70301;SDS011;57706;56.326;43.882;2023-08-20T11:34:01;9.13;;;6.30;;
70301;SDS011;57706;56.326;43.882;2023-08-20T11:36:28;9.77;;;6.43;;
70301;SDS011;57706;56.326;43.882;2023-08-20T11:38:54;11.90;;;6.95;;
70301;SDS011;57706;56.326;43.882;2023-08-20T11:41:21;8.57;;;5.80;;
70301;SDS011;57706;56.326;43.882;2023-08-20T11:43:48;10.38;;;6.43;;
70301;SDS011;57706;56.326;43.882;2023-08-20T11:46:15;10.00;;;6.88;;
70301;SDS011;57706;56.326;43.882;2023-08-20T11:51:29;9.57;;;6.35;;
70301;SDS011;57706;56.326;43.882;2023-08-20T11:53:56;10.57;;;6.57;;
70301;SDS011;57706;56.326;43.882;2023-08-20T11:56:22;10.35;;;5.82;;
70301;SDS011;57706;56.326;43.882;2023-08-20T11:58:51;10.68;;;6.18;;
70301;SDS011;57706;56.326;43.882;2023-08-20T12:01:18;8.25;;;6.20;;
70301;SDS011;57706;56.326;43.882;2023-08-20T12:03:45;10.40;;;6.05;;
70301;SDS011;57706;56.326;43.882;2023-08-20T12:06:20;7.65;;;5.68;;
70301;SDS011;57706;56.326;43.882;2023-08-20T12:08:48;13.20;;;6.45;;
70301;SDS011;57706;56.326;43.882;2023-08-20T12:11:14;11.00;;;6.10;;
70301;SDS011;57706;56.326;43.882;2023-08-20T12:13:40;8.45;;;6.35;;
70301;SDS011;57706;56.326;43.882;2023-08-20T12:16:06;7.03;;;5.47;;
70301;SDS011;57706;56.326;43.882;2023-08-20T12:18:32;9.98;;;6.32;;
70301;SDS011;57706;56.326;43.882;2023-08-20T12:20:58;9.85;;;5.95;;
70301;SDS011;57706;56.326;43.882;2023-08-20T12:23:23;8.73;;;6.93;;
70301;SDS011;57706;56.326;43.882;2023-08-20T12:25:50;12.63;;;6.18;;
70301;SDS011;57706;56.326;43.882;2023-08-20T12:28:17;13.68;;;6.13;;
70301;SDS011;57706;56.326;43.882;2023-08-20T12:30:43;17.20;;;11.18;;
70301;SDS011;57706;56.326;43.882;2023-08-20T12:33:11;9.88;;;6.05;;
70301;SDS011;57706;56.326;43.882;2023-08-20T12:35:36;8.82;;;6.00;;
70301;SDS011;57706;56.326;43.882;2023-08-20T12:38:03;10.00;;;6.55;;
70301;SDS011;57706;56.326;43.882;2023-08-20T12:40:29;9.98;;;6.53;;
70301;SDS011;57706;56.326;43.882;2023-08-20T12:42:56;9.68;;;6.10;;
70301;SDS011;57706;56.326;43.882;2023-08-20T12:45:21;7.78;;;6.30;;
70301;SDS011;57706;56.326;43.882;2023-08-20T12:47:47;14.90;;;5.63;;
70301;SDS011;57706;56.326;43.882;2023-08-20T12:50:13;8.18;;;5.28;;
70301;SDS011;57706;56.326;43.882;2023-08-20T12:52:40;8.63;;;5.80;;
70301;SDS011;57706;56.326;43.882;2023-08-20T12:55:06;13.35;;;5.97;;
70301;SDS011;57706;56.326;43.882;2023-08-20T12:57:33;9.90;;;5.90;;
70301;SDS011;57706;56.326;43.882;2023-08-20T13:00:00;10.38;;;6.20;;
70301;SDS011;57706;56.326;43.882;2023-08-20T13:02:28;9.27;;;6.25;;
70301;SDS011;57706;56.326;43.882;2023-08-20T13:04:55;15.45;;;6.78;;
70301;SDS011;57706;56.326;43.882;2023-08-20T13:07:21;11.98;;;6.45;;
70301;SDS011;57706;56.326;43.882;2023-08-20T13:09:47;14.23;;;6.72;;
70301;SDS011;57706;56.326;43.882;2023-08-20T13:12:13;9.23;;;6.13;;
70301;SDS011;57706;56.326;43.882;2023-08-20T13:14:41;8.45;;;6.03;;
70301;SDS011;57706;56.326;43.882;2023-08-20T13:17:08;12.45;;;6.05;;
70301;SDS011;57706;56.326;43.882;2023-08-20T13:19:35;19.70;;;6.05;;
70301;SDS011;57706;56.326;43.882;2023-08-20T13:22:01;14.50;;;6.43;;
70301;SDS011;57706;56.326;43.882;2023-08-20T13:24:27;10.77;;;5.82;;
70301;SDS011;57706;56.326;43.882;2023-08-20T13:26:53;8.45;;;5.90;;
70301;SDS011;57706;56.326;43.882;2023-08-20T13:29:18;9.65;;;6.13;;
70301;SDS011;57706;56.326;43.882;2023-08-20T13:31:44;10.13;;;5.72;;
70301;SDS011;57706;56.326;43.882;2023-08-20T13:34:10;10.07;;;5.68;;
70301;SDS011;57706;56.326;43.882;2023-08-20T13:36:36;12.65;;;6.45;;
70301;SDS011;57706;56.326;43.882;2023-08-20T13:39:02;15.63;;;6.32;;
70301;SDS011;57706;56.326;43.882;2023-08-20T13:41:28;15.57;;;6.15;;
70301;SDS011;57706;56.326;43.882;2023-08-20T13:43:54;14.77;;;6.20;;
70301;SDS011;57706;56.326;43.882;2023-08-20T13:46:20;16.80;;;7.38;;
70301;SDS011;57706;56.326;43.882;2023-08-20T13:48:46;10.70;;;5.75;;
70301;SDS011;57706;56.326;43.882;2023-08-20T13:51:12;8.55;;;5.90;;
70301;SDS011;57706;56.326;43.882;2023-08-20T13:53:37;14.27;;;6.57;;
70301;SDS011;57706;56.326;43.882;2023-08-20T13:56:03;14.05;;;6.65;;
70301;SDS011;57706;56.326;43.882;2023-08-20T13:58:29;9.60;;;6.35;;
70301;SDS011;57706;56.326;43.882;2023-08-20T14:00:55;13.43;;;6.53;;
70301;SDS011;57706;56.326;43.882;2023-08-20T14:03:21;11.70;;;5.95;;
70301;SDS011;57706;56.326;43.882;2023-08-20T14:05:46;9.70;;;6.10;;
70301;SDS011;57706;56.326;43.882;2023-08-20T14:08:13;12.73;;;5.53;;
70301;SDS011;57706;56.326;43.882;2023-08-20T14:10:38;6.60;;;5.50;;
70301;SDS011;57706;56.326;43.882;2023-08-20T14:13:04;8.57;;;5.70;;
70301;SDS011;57706;56.326;43.882;2023-08-20T14:15:30;9.00;;;6.03;;
70301;SDS011;57706;56.326;43.882;2023-08-20T14:17:56;12.35;;;6.40;;
70301;SDS011;57706;56.326;43.882;2023-08-20T14:20:21;14.27;;;8.95;;
70301;SDS011;57706;56.326;43.882;2023-08-20T14:22:47;12.10;;;6.82;;
70301;SDS011;57706;56.326;43.882;2023-08-20T14:25:13;9.65;;;6.70;;
70301;SDS011;57706;56.326;43.882;2023-08-20T14:27:39;10.25;;;6.55;;
70301;SDS011;57706;56.326;43.882;2023-08-20T14:30:05;10.35;;;6.07;;
70301;SDS011;57706;56.326;43.882;2023-08-20T14:32:33;9.57;;;6.25;;
70301;SDS011;57706;56.326;43.882;2023-08-20T14:34:59;11.40;;;6.32;;
70301;SDS011;57706;56.326;43.882;2023-08-20T14:37:25;14.32;;;6.38;;
70301;SDS011;57706;56.326;43.882;2023-08-20T14:39:51;11.10;;;7.05;;
70301;SDS011;57706;56.326;43.882;2023-08-20T14:42:17;9.73;;;6.45;;
70301;SDS011;57706;56.326;43.882;2023-08-20T14:44:43;11.55;;;6.63;;
70301;SDS011;57706;56.326;43.882;2023-08-20T14:47:09;11.02;;;7.03;;
70301;SDS011;57706;56.326;43.882;2023-08-20T14:49:36;15.02;;;7.35;;
70301;SDS011;57706;56.326;43.882;2023-08-20T14:52:02;13.65;;;7.20;;
70301;SDS011;57706;56.326;43.882;2023-08-20T14:54:28;16.00;;;9.57;;
70301;SDS011;57706;56.326;43.882;2023-08-20T14:56:54;13.23;;;7.80;;
70301;SDS011;57706;56.326;43.882;2023-08-20T14:59:19;10.73;;;6.82;;
70301;SDS011;57706;56.326;43.882;2023-08-20T15:01:46;13.32;;;7.35;;
70301;SDS011;57706;56.326;43.882;2023-08-20T15:04:12;10.65;;;6.75;;
70301;SDS011;57706;56.326;43.882;2023-08-20T15:06:37;15.55;;;6.90;;